Time;durP1;ratioP1;P1;durP2;ratioP2;P2;SDS_P1;SDS_P2;PMS_P1;PMS_P2;Temp;Humidity;BMP_temperature;BMP_pressure;BME280_temperature;BME280_humidity;BME280_pressure;Samples;Min_cycle;Max_cycle;Signal;HPM_P1;HPM_P2
2022/09/13 05:27:53;;;;;;;;;5.00;5.00;;;;;22.53;55.14;100519.63;5085578;27;1307119;-84
2022/09/13 05:30:18;;;;;;;;;6.00;4.33;;;;;22.66;55.89;100512.91;5130797;27;45352;-86
2022/09/13 05:32:44;;;;;;;;;6.00;4.67;;;;;22.86;55.72;100514.28;5129704;27;45525;-85
2022/09/13 05:35:09;;;;;;;;;4.00;4.00;;;;;23.14;55.34;100511.19;5124077;27;48143;-82
2022/09/13 05:37:34;;;;;;;;;5.00;5.00;;;;;23.45;54.91;100519.63;5127143;27;45472;-79
2022/09/13 05:40:00;;;;;;;;;4.33;4.33;;;;;23.76;54.31;100508.00;5143907;27;52187;-83
2022/09/13 05:42:25;;;;;;;;;6.33;6.00;;;;;24.07;53.85;100515.28;5123585;27;45569;-80
2022/09/13 05:44:50;;;;;;;;;6.00;6.00;;;;;24.36;53.58;100505.66;5138891;27;45590;-86
2022/09/13 05:47:16;;;;;;;;;9.00;6.33;;;;;24.63;52.91;100499.88;5129147;27;45526;-88
2022/09/13 05:49:41;;;;;;;;;7.33;6.33;;;;;24.91;52.17;100496.63;5129355;27;45923;-85
2022/09/13 05:52:06;;;;;;;;;7.33;7.33;;;;;25.15;51.81;100500.97;5126947;27;45472;-83
2022/09/13 05:54:33;;;;;;;;;6.00;6.00;;;;;25.38;51.24;100502.78;5124820;27;45485;-84
2022/09/13 05:56:58;;;;;;;;;5.33;5.00;;;;;25.59;50.81;100499.31;5126408;27;46341;-87
2022/09/13 05:59:23;;;;;;;;;9.67;5.67;;;;;25.78;50.20;100492.47;5120908;27;45484;-82
2022/09/13 06:01:49;;;;;;;;;8.00;5.00;;;;;25.96;49.55;100493.09;5131117;27;45395;-88
2022/09/13 06:04:14;;;;;;;;;4.33;4.33;;;;;26.12;49.65;100492.84;5131111;27;45429;-83
2022/09/13 06:06:40;;;;;;;;;7.33;5.00;;;;;26.28;49.19;100491.81;5130748;27;45487;-82
2022/09/13 06:09:08;;;;;;;;;7.33;5.67;;;;;26.41;49.07;100491.09;5129971;27;45357;-82
2022/09/13 06:11:33;;;;;;;;;6.67;5.33;;;;;26.52;48.66;100499.78;5131137;27;45792;-81
2022/09/13 06:13:59;;;;;;;;;6.00;5.00;;;;;26.60;48.54;100490.66;5145189;27;46525;-87
2022/09/13 06:16:24;;;;;;;;;7.00;7.00;;;;;26.69;48.06;100497.66;5128574;27;46391;-87
2022/09/13 06:18:49;;;;;;;;;6.00;6.00;;;;;26.79;48.48;100497.28;5148183;27;45476;-85
2022/09/13 06:21:17;;;;;;;;;6.67;5.33;;;;;26.87;47.68;100490.84;5131280;27;45453;-81
2022/09/13 06:23:47;;;;;;;;;8.00;8.00;;;;;26.94;48.01;100484.44;5130049;27;45513;-85
2022/09/13 06:26:15;;;;;;;;;6.33;6.33;;;;;27.03;47.35;100477.00;5129391;27;45386;-84
2022/09/13 06:28:41;;;;;;;;;6.33;6.33;;;;;27.07;47.55;100464.66;5126659;27;45520;-79
2022/09/13 06:31:09;;;;;;;;;6.33;5.00;;;;;27.11;47.22;100465.09;5123540;27;45482;-80
2022/09/13 06:33:37;;;;;;;;;4.67;4.67;;;;;27.13;46.83;100465.72;5127892;27;45698;-80
2022/09/13 06:36:05;;;;;;;;;6.00;6.00;;;;;27.15;46.63;100458.22;5130072;27;45814;-80
2022/09/13 06:38:30;;;;;;;;;6.00;6.00;;;;;27.14;46.37;100456.50;5113738;27;46354;-83
2022/09/13 06:41:22;;;;;;;;;6.33;6.33;;;;;27.12;46.11;100447.72;5115943;27;45577;-85
2022/09/13 06:43:56;;;;;;;;;6.00;5.67;;;;;27.10;46.83;100447.09;5104673;27;45633;-87
2022/09/13 06:46:21;;;;;;;;;7.00;7.00;;;;;27.12;46.43;100438.69;5129973;27;46219;-85
2022/09/13 06:48:47;;;;;;;;;6.67;6.67;;;;;27.10;46.13;100434.28;5107201;27;45402;-81
2022/09/13 06:51:18;;;;;;;;;5.33;5.33;;;;;27.15;46.65;100438.28;5116613;27;45694;-79
2022/09/13 06:53:45;;;;;;;;;6.67;6.67;;;;;27.16;45.87;100415.47;5112924;27;45457;-79
2022/09/13 06:56:17;;;;;;;;;7.00;7.00;;;;;27.18;46.17;100421.56;5113710;27;46517;-80
2022/09/13 06:58:44;;;;;;;;;7.33;5.67;;;;;27.21;46.53;100426.59;5114650;27;45530;-85
2022/09/13 07:01:19;;;;;;;;;6.00;6.00;;;;;27.21;45.88;100412.97;5109700;27;45251;-80
2022/09/13 07:03:47;;;;;;;;;7.00;7.00;;;;;27.25;45.90;100416.16;5113588;27;45500;-83
2022/09/13 07:06:13;;;;;;;;;7.67;7.67;;;;;27.26;45.95;100415.94;5110954;27;45944;-81
2022/09/13 07:08:41;;;;;;;;;7.33;5.67;;;;;27.29;45.52;100415.53;5114392;27;45571;-80
2022/09/13 07:11:08;;;;;;;;;7.67;6.33;;;;;27.30;45.95;100417.22;5110808;27;45490;-81
2022/09/13 07:13:33;;;;;;;;;4.00;4.00;;;;;27.30;45.65;100417.22;5115655;27;45508;-84
2022/09/13 07:16:05;;;;;;;;;5.00;5.00;;;;;27.29;45.38;100420.97;5112930;27;45408;-82
2022/09/13 07:18:30;;;;;;;;;7.67;7.33;;;;;27.31;45.72;100424.38;5132767;27;45496;-79
2022/09/13 07:21:04;;;;;;;;;7.00;6.67;;;;;27.30;45.31;100427.28;5109328;27;45402;-81
2022/09/13 07:23:32;;;;;;;;;8.00;7.67;;;;;27.30;45.48;100422.66;5092604;27;46332;-81
2022/09/13 07:26:03;;;;;;;;;5.67;5.67;;;;;27.28;45.90;100434.81;5101718;27;45589;-79
2022/09/13 07:28:30;;;;;;;;;6.00;6.00;;;;;27.25;45.18;100438.78;5100994;27;46387;-80
2022/09/13 07:31:04;;;;;;;;;4.33;3.00;;;;;27.23;45.94;100432.69;5098983;27;45570;-78
2022/09/13 07:33:29;;;;;;;;;7.00;7.00;;;;;27.23;45.45;100425.34;5114318;27;45452;-79
2022/09/13 07:35:56;;;;;;;;;5.00;5.00;;;;;27.26;45.71;100429.53;5101306;27;56580;-79
2022/09/13 07:38:21;;;;;;;;;6.67;6.67;;;;;27.29;45.71;100428.31;5110028;27;45690;-78
2022/09/13 07:40:58;;;;;;;;;8.67;7.00;;;;;27.30;45.72;100427.28;5114125;27;47269;-80
2022/09/13 07:43:27;;;;;;;;;7.67;7.00;;;;;27.31;45.93;100429.81;5105788;27;45507;-77
2022/09/13 07:46:06;;;;;;;;;8.33;7.33;;;;;27.35;45.23;100438.41;5115829;27;46166;-78
2022/09/13 07:48:35;;;;;;;;;7.67;7.00;;;;;27.36;45.67;100437.38;5130942;27;45759;-78
2022/09/13 07:51:02;;;;;;;;;7.67;5.33;;;;;27.37;45.67;100439.03;5111691;27;45441;-78
2022/09/13 07:53:28;;;;;;;;;7.67;7.00;;;;;27.38;45.04;100440.72;5124019;27;45803;-78
2022/09/13 07:55:59;;;;;;;;;7.00;7.00;;;;;27.38;45.00;100434.44;5109913;27;45670;-79
2022/09/13 07:58:24;;;;;;;;;8.33;7.33;;;;;27.39;44.86;100433.41;5107164;27;45210;-79
2022/09/13 08:00:50;;;;;;;;;7.00;6.00;;;;;27.40;44.95;100437.78;5116285;27;47320;-80
2022/09/13 08:03:15;;;;;;;;;8.00;8.00;;;;;27.44;45.55;100436.34;5114833;27;45320;-78
2022/09/13 08:05:41;;;;;;;;;6.33;6.00;;;;;27.45;44.69;100438.88;5098220;27;47942;-78
2022/09/13 08:08:06;;;;;;;;;9.00;7.00;;;;;27.47;45.15;100439.50;5111719;27;45460;-77
2022/09/13 08:10:33;;;;;;;;;5.00;5.00;;;;;27.48;45.12;100443.09;5105329;27;45626;-79
2022/09/13 08:12:59;;;;;;;;;5.00;5.00;;;;;27.48;44.53;100440.34;5095913;27;45580;-78
2022/09/13 08:15:25;;;;;;;;;6.67;6.00;;;;;27.45;45.24;100438.88;5093197;27;46922;-79
2022/09/13 08:17:51;;;;;;;;;10.00;7.67;;;;;27.46;44.68;100437.81;5094901;27;45838;-79
2022/09/13 08:20:16;;;;;;;;;6.67;6.67;;;;;27.46;44.84;100435.09;5095600;27;45634;-79
2022/09/13 08:22:42;;;;;;;;;7.00;6.33;;;;;27.46;44.78;100440.56;5093494;27;45585;-79
2022/09/13 08:25:07;;;;;;;;;7.67;6.67;;;;;27.47;44.79;100444.13;5099029;27;47240;-78
2022/09/13 08:27:33;;;;;;;;;5.67;4.33;;;;;27.47;44.56;100453.13;5093296;27;46962;-77
2022/09/13 08:29:58;;;;;;;;;8.00;7.00;;;;;27.50;45.24;100468.25;5096177;27;45517;-77
2022/09/13 08:32:24;;;;;;;;;5.00;3.67;;;;;27.53;45.85;100472.44;5095657;27;46198;-78
2022/09/13 08:34:49;;;;;;;;;4.67;3.67;;;;;27.50;45.40;100470.97;5096678;27;46368;-79
2022/09/13 08:37:14;;;;;;;;;4.67;4.67;;;;;27.50;45.59;100484.59;5099986;27;47258;-78
2022/09/13 08:39:40;;;;;;;;;7.00;6.67;;;;;27.46;45.34;100478.72;5099798;27;45715;-76
2022/09/13 08:42:08;;;;;;;;;4.33;4.33;;;;;27.46;44.93;100481.44;5101480;27;45582;-77
2022/09/13 08:44:37;;;;;;;;;4.00;4.00;;;;;27.48;44.85;100483.97;5098195;27;47551;-83
2022/09/13 08:47:21;;;;;;;;;6.00;6.00;;;;;27.51;45.21;100485.44;5102046;27;45594;-79
2022/09/13 08:49:51;;;;;;;;;5.00;4.00;;;;;27.51;45.25;100474.53;5108695;27;45457;-79
2022/09/13 08:52:29;;;;;;;;;6.00;6.00;;;;;27.54;44.75;100482.31;5105250;27;45307;-79
2022/09/13 08:54:56;;;;;;;;;4.00;4.00;;;;;27.56;44.80;100485.69;5101106;27;46195;-81
2022/09/13 08:57:51;;;;;;;;;5.00;5.00;;;;;27.59;44.48;100485.28;5101398;27;45843;-77
2022/09/13 09:00:34;;;;;;;;;5.00;5.00;;;;;27.60;44.83;100497.91;5101165;27;46059;-78
2022/09/13 09:03:24;;;;;;;;;5.00;5.00;;;;;27.58;44.35;100500.78;5104358;27;45604;-77
2022/09/13 09:05:51;;;;;;;;;7.00;4.33;;;;;27.59;45.11;100510.63;5126529;27;46073;-78
2022/09/13 09:08:39;;;;;;;;;5.00;5.00;;;;;27.59;45.10;100518.00;5100151;27;45478;-77
2022/09/13 09:11:13;;;;;;;;;6.33;4.00;;;;;27.62;45.01;100509.44;5121483;27;45578;-78
2022/09/13 09:14:10;;;;;;;;;5.00;5.00;;;;;27.68;45.05;100510.50;5104015;27;45560;-77
2022/09/13 09:16:40;;;;;;;;;4.00;4.00;;;;;27.71;44.30;100505.50;5100939;27;45734;-77
2022/09/13 09:19:21;;;;;;;;;4.00;4.00;;;;;27.74;44.95;100504.25;5099847;27;46778;-78
2022/09/13 09:21:49;;;;;;;;;4.00;3.67;;;;;27.78;44.64;100505.53;5103641;27;45519;-79
2022/09/13 09:24:19;;;;;;;;;4.67;4.00;;;;;27.80;44.62;100502.59;5100425;27;46846;-82
2022/09/13 09:26:45;;;;;;;;;4.33;4.33;;;;;27.79;43.89;100498.19;5103092;27;46231;-82
2022/09/13 09:29:24;;;;;;;;;5.00;4.67;;;;;27.74;44.01;100499.63;5101451;27;46391;-82
2022/09/13 09:32:08;;;;;;;;;3.67;3.67;;;;;27.75;44.29;100506.78;5101741;27;45406;-82
2022/09/13 09:35:01;;;;;;;;;5.67;5.00;;;;;27.73;44.33;100503.41;5101442;27;45521;-82
2022/09/13 09:37:29;;;;;;;;;4.00;4.00;;;;;27.72;44.75;100512.63;5099061;27;46556;-83
2022/09/13 09:40:01;;;;;;;;;6.00;4.67;;;;;27.74;44.38;100516.00;5102114;27;45519;-85
2022/09/13 09:42:31;;;;;;;;;4.00;4.00;;;;;27.75;44.51;100517.69;5098534;27;45586;-84
2022/09/13 09:45:03;;;;;;;;;3.00;3.00;;;;;27.80;44.43;100511.63;5102637;27;45555;-84
2022/09/13 09:47:40;;;;;;;;;5.00;5.00;;;;;27.80;44.23;100516.22;5111383;27;46090;-84
2022/09/13 09:50:26;;;;;;;;;5.67;4.67;;;;;27.75;44.32;100512.22;5112444;27;45367;-80
2022/09/13 09:53:05;;;;;;;;;3.00;3.00;;;;;27.74;44.59;100515.16;5101108;27;45581;-78
2022/09/13 09:55:42;;;;;;;;;5.33;5.33;;;;;27.75;43.99;100525.03;5100349;27;45841;-76
2022/09/13 09:58:08;;;;;;;;;6.00;4.67;;;;;27.78;44.67;100518.34;5112149;27;46165;-76
2022/09/13 10:00:36;;;;;;;;;3.33;3.33;;;;;27.81;44.62;100517.91;5105624;27;46173;-75
2022/09/13 10:03:13;;;;;;;;;5.67;3.67;;;;;27.86;44.41;100515.41;5108921;27;45397;-76
2022/09/13 10:05:40;;;;;;;;;4.00;4.00;;;;;27.86;43.92;100521.72;5103922;27;45406;-78
2022/09/13 10:08:07;;;;;;;;;5.33;4.67;;;;;27.91;44.45;100518.38;5100580;27;45493;-77
2022/09/13 10:10:42;;;;;;;;;8.33;4.00;;;;;27.94;44.15;100511.66;5103677;27;45468;-78
2022/09/13 10:13:16;;;;;;;;;3.33;3.33;;;;;27.99;44.27;100507.28;5111085;27;46252;-78
2022/09/13 10:15:56;;;;;;;;;5.00;5.00;;;;;28.04;43.95;100503.09;5117040;27;45645;-79
2022/09/13 10:18:24;;;;;;;;;5.00;5.00;;;;;28.07;43.72;100508.97;5103263;27;47470;-80
2022/09/13 10:21:05;;;;;;;;;5.00;5.00;;;;;28.09;43.47;100497.88;5116773;27;45387;-78
2022/09/13 10:23:35;;;;;;;;;6.00;6.00;;;;;28.11;44.03;100498.50;5111591;27;45590;-78
2022/09/13 10:26:12;;;;;;;;;4.33;3.00;;;;;28.12;44.13;100506.47;5107280;27;47109;-79
2022/09/13 10:28:58;;;;;;;;;4.00;4.00;;;;;28.13;44.22;100496.41;5103164;27;45660;-82
2022/09/13 10:31:30;;;;;;;;;8.67;6.00;;;;;28.14;43.29;100498.09;5110537;27;45554;-82
2022/09/13 10:34:00;;;;;;;;;4.00;4.00;;;;;28.11;44.16;100495.75;5106597;27;45534;-82
2022/09/13 10:36:30;;;;;;;;;7.00;6.00;;;;;28.12;43.42;100497.47;5108828;27;45599;-82
2022/09/13 10:38:59;;;;;;;;;6.00;6.00;;;;;28.10;43.35;100491.34;5114577;27;46220;-82
2022/09/13 10:41:41;;;;;;;;;7.33;5.67;;;;;28.09;44.06;100490.53;5110480;27;45399;-82
2022/09/13 10:44:25;;;;;;;;;5.67;5.00;;;;;28.09;44.28;100496.00;5112229;27;45497;-82
2022/09/13 10:46:51;;;;;;;;;4.00;4.00;;;;;28.08;44.02;100485.28;5111194;27;45574;-80
2022/09/13 10:49:38;;;;;;;;;4.00;4.00;;;;;28.00;44.33;100475.41;5110703;27;45542;-80
2022/09/13 10:52:31;;;;;;;;;5.67;5.33;;;;;27.92;43.92;100476.44;5104567;27;45511;-78
2022/09/13 10:55:15;;;;;;;;;5.00;5.00;;;;;27.87;43.95;100479.75;5104036;27;45454;-77
2022/09/13 10:57:40;;;;;;;;;4.00;4.00;;;;;27.87;44.51;100481.63;5111995;27;45584;-79
2022/09/13 11:00:18;;;;;;;;;6.00;6.00;;;;;27.86;44.55;100464.44;5102325;27;47050;-79
2022/09/13 11:03:04;;;;;;;;;3.67;3.67;;;;;27.87;45.12;100468.84;5103524;27;45532;-80
2022/09/13 11:05:49;;;;;;;;;4.33;4.00;;;;;27.88;45.21;100464.25;5105469;27;45272;-79
2022/09/13 11:08:17;;;;;;;;;4.67;4.67;;;;;27.89;44.96;100471.38;5111361;27;45420;-81
2022/09/13 11:10:48;;;;;;;;;3.67;3.67;;;;;27.91;44.90;100471.19;5107804;27;45351;-80
2022/09/13 11:13:23;;;;;;;;;6.00;6.00;;;;;27.91;45.11;100455.63;5111272;27;45336;-77
2022/09/13 11:16:02;;;;;;;;;4.00;4.00;;;;;27.96;44.68;100458.59;5103246;27;45448;-74
2022/09/13 11:18:50;;;;;;;;;5.00;4.67;;;;;28.01;45.46;100452.53;5106439;27;45749;-83
2022/09/13 11:21:34;;;;;;;;;5.67;5.00;;;;;28.08;44.39;100461.56;5098559;27;46043;-82
2022/09/13 11:24:13;;;;;;;;;7.00;7.00;;;;;28.18;43.95;100457.59;5118529;27;45506;-81
2022/09/13 11:27:01;;;;;;;;;5.33;5.33;;;;;28.28;44.05;100458.06;5101264;27;45374;-81
2022/09/13 11:29:53;;;;;;;;;6.67;6.33;;;;;28.35;43.77;100467.09;5105919;27;45472;-81
2022/09/13 11:32:58;;;;;;;;;4.33;4.33;;;;;28.38;44.00;100469.44;5109127;27;45366;-81
2022/09/13 11:35:29;;;;;;;;;6.00;6.00;;;;;28.41;43.60;100469.00;5104707;27;45367;-78
2022/09/13 11:38:28;;;;;;;;;8.00;6.67;;;;;28.43;43.62;100454.28;5110550;27;45567;-78
2022/09/13 11:41:04;;;;;;;;;6.33;6.33;;;;;28.43;43.53;100444.22;5093644;27;46239;-79
2022/09/13 11:43:51;;;;;;;;;8.00;6.00;;;;;28.46;43.60;100442.97;5111073;27;45480;-77
2022/09/13 11:46:34;;;;;;;;;5.33;5.00;;;;;28.45;43.03;100455.78;5113288;27;45397;-77
2022/09/13 11:49:06;;;;;;;;;4.33;4.33;;;;;28.46;43.78;100456.59;5109814;27;45527;-77
2022/09/13 11:51:47;;;;;;;;;6.00;5.33;;;;;28.44;43.20;100456.00;5115834;27;46809;-77
2022/09/13 11:54:13;;;;;;;;;4.33;4.33;;;;;28.44;43.53;100445.91;5112026;27;45923;-76
2022/09/13 11:56:43;;;;;;;;;8.00;5.00;;;;;28.44;43.73;100450.53;5114081;27;45449;-77
2022/09/13 11:59:30;;;;;;;;;5.67;5.67;;;;;28.43;43.75;100455.13;5110502;27;45544;-76
2022/09/13 12:02:07;;;;;;;;;7.00;6.00;;;;;28.43;43.51;100457.88;5107151;27;45625;-78
2022/09/13 12:04:43;;;;;;;;;6.00;5.00;;;;;28.42;43.21;100456.19;5102371;27;45382;-79
2022/09/13 12:07:18;;;;;;;;;5.67;4.67;;;;;28.40;43.41;100448.22;5114161;27;45862;-78
2022/09/13 12:09:54;;;;;;;;;5.00;5.00;;;;;28.39;43.80;100445.69;5116081;27;45445;-78
2022/09/13 12:12:25;;;;;;;;;6.33;6.33;;;;;28.39;43.82;100443.81;5104556;27;45484;-77
2022/09/13 12:14:59;;;;;;;;;7.00;7.00;;;;;28.38;43.72;100435.81;5101443;27;46300;-78
2022/09/13 12:17:39;;;;;;;;;5.33;5.33;;;;;28.37;43.14;100436.88;5105268;27;45302;-76
2022/09/13 12:20:13;;;;;;;;;6.67;5.33;;;;;28.36;43.71;100441.47;5101068;27;45425;-80
2022/09/13 12:22:40;;;;;;;;;5.00;5.00;;;;;28.35;43.66;100433.50;5103925;27;45546;-77
2022/09/13 12:25:20;;;;;;;;;4.67;4.67;;;;;28.34;43.62;100427.22;5113500;27;46093;-78
2022/09/13 12:28:05;;;;;;;;;4.00;4.00;;;;;28.36;43.61;100433.28;5109667;27;45418;-81
2022/09/13 12:30:44;;;;;;;;;6.00;6.00;;;;;28.36;43.78;100427.84;5098838;27;45432;-77
2022/09/13 12:33:14;;;;;;;;;5.33;5.00;;;;;28.38;43.61;100431.22;5111742;27;45390;-79
2022/09/13 12:35:50;;;;;;;;;4.00;4.00;;;;;28.39;43.25;100419.25;5104677;27;46357;-79
2022/09/13 12:38:51;;;;;;;;;6.00;5.00;;;;;28.40;43.66;100412.72;5106756;27;45359;-78
2022/09/13 12:41:41;;;;;;;;;6.00;6.00;;;;;28.40;43.36;100401.81;5107344;27;45809;-78
2022/09/13 12:44:15;;;;;;;;;6.33;6.33;;;;;28.43;43.68;100405.16;5107428;27;45703;-79
2022/09/13 12:47:02;;;;;;;;;5.00;5.00;;;;;28.44;43.40;100396.75;5109346;27;46637;-79
2022/09/13 12:49:51;;;;;;;;;6.00;6.00;;;;;28.46;42.98;100400.16;5106375;27;45582;-79
2022/09/13 12:52:43;;;;;;;;;5.00;5.00;;;;;28.47;43.46;100382.72;5113788;27;45419;-80
2022/09/13 12:55:50;;;;;;;;;3.33;3.00;;;;;28.49;43.61;100377.03;5115573;27;45493;-78
2022/09/13 12:58:21;;;;;;;;;5.00;5.00;;;;;28.50;43.57;100374.09;5070582;28;46550;-78
2022/09/13 13:01:08;;;;;;;;;5.67;4.00;;;;;28.51;43.57;100377.66;5069907;28;45451;-78
2022/09/13 13:04:02;;;;;;;;;4.00;3.67;;;;;28.51;43.07;100375.78;5061421;28;45517;-80
2022/09/13 13:06:46;;;;;;;;;5.33;4.67;;;;;28.51;43.49;100348.47;5071235;28;47580;-77
2022/09/13 13:09:18;;;;;;;;;5.33;5.00;;;;;28.52;42.95;100362.94;5067380;28;45573;-78
2022/09/13 13:11:46;;;;;;;;;5.00;4.00;;;;;28.51;42.99;100369.47;5068270;28;45449;-78
2022/09/13 13:14:52;;;;;;;;;5.33;5.33;;;;;28.52;42.75;100349.31;5066293;27;45392;-79
2022/09/13 13:17:39;;;;;;;;;9.00;6.00;;;;;28.53;42.84;100342.81;5061506;27;45622;-80
2022/09/13 13:20:38;;;;;;;;;6.67;5.00;;;;;28.53;43.46;100348.28;5062469;28;45516;-83
2022/09/13 13:23:15;;;;;;;;;4.00;4.00;;;;;28.53;43.04;100348.28;5070483;28;45463;-83
2022/09/13 13:25:55;;;;;;;;;4.00;4.00;;;;;28.57;43.17;100356.88;5065980;27;45475;-81
2022/09/13 13:28:50;;;;;;;;;4.00;4.00;;;;;28.56;43.38;100357.94;5070307;27;45608;-76
2022/09/13 13:31:31;;;;;;;;;6.33;5.33;;;;;28.58;43.13;100372.19;5101974;27;46464;-77
2022/09/13 13:34:22;;;;;;;;;7.67;7.67;;;;;28.59;43.33;100368.41;5114515;27;45435;-77
2022/09/13 13:36:57;;;;;;;;;7.00;6.00;;;;;28.57;43.12;100360.44;5107873;27;45540;-77
2022/09/13 13:39:22;;;;;;;;;4.33;4.33;;;;;28.59;43.05;100355.59;5099540;27;45888;-79
2022/09/13 13:41:59;;;;;;;;;6.00;6.00;;;;;28.59;42.87;100352.88;5113550;27;45639;-78
2022/09/13 13:44:44;;;;;;;;;7.67;5.33;;;;;28.59;43.43;100343.84;5101288;27;45561;-78
2022/09/13 13:47:12;;;;;;;;;5.67;5.67;;;;;28.59;43.37;100338.38;5099580;27;45606;-78
2022/09/13 13:49:38;;;;;;;;;5.00;5.00;;;;;28.57;43.59;100344.03;5115254;27;45322;-78
2022/09/13 13:52:06;;;;;;;;;7.67;7.67;;;;;28.57;43.33;100335.84;5113444;27;46142;-80
2022/09/13 13:55:20;;;;;;;;;6.00;6.00;;;;;28.58;42.92;100340.28;5111330;27;45501;-80
2022/09/13 13:57:58;;;;;;;;;6.00;6.00;;;;;28.58;43.48;100323.91;5117420;27;45487;-78
2022/09/13 14:00:27;;;;;;;;;7.00;7.00;;;;;28.58;43.67;100317.59;5104041;27;45430;-80
2022/09/13 14:03:03;;;;;;;;;6.67;6.67;;;;;28.58;43.29;100315.72;5116144;27;46437;-79
2022/09/13 14:05:48;;;;;;;;;5.67;5.67;;;;;28.59;43.20;100309.19;5111882;27;45578;-77
2022/09/13 14:08:35;;;;;;;;;6.67;6.67;;;;;28.60;43.62;100316.34;5107072;27;45613;-77
2022/09/13 14:11:39;;;;;;;;;7.00;7.00;;;;;28.62;43.64;100313.38;5115232;27;45501;-77
2022/09/13 14:14:10;;;;;;;;;7.33;6.33;;;;;28.61;43.51;100304.34;5074777;28;45601;-78
2022/09/13 14:16:44;;;;;;;;;6.33;6.33;;;;;28.61;43.35;100296.16;5063136;28;45509;-76
2022/09/13 14:19:18;;;;;;;;;7.67;7.67;;;;;28.62;42.88;100297.88;5075097;28;45499;-77
2022/09/13 14:21:44;;;;;;;;;7.00;7.00;;;;;28.61;42.61;100287.97;5060890;27;45900;-80
2022/09/13 14:24:23;;;;;;;;;8.67;7.00;;;;;28.62;43.30;100284.22;5073542;28;47719;-80
2022/09/13 14:26:57;;;;;;;;;10.00;8.00;;;;;28.61;43.68;100290.69;5052894;28;45613;-80
2022/09/13 14:29:25;;;;;;;;;6.00;6.00;;;;;28.63;43.49;100301.41;5069157;28;45435;-79
2022/09/13 14:31:53;;;;;;;;;8.33;8.33;;;;;28.64;43.36;100305.81;5054654;27;45425;-77
2022/09/13 14:34:49;;;;;;;;;7.00;7.00;;;;;28.65;43.43;100310.25;5070697;28;46400;-77
2022/09/13 14:37:20;;;;;;;;;7.00;7.00;;;;;28.66;43.10;100309.19;5069799;28;45586;-77
2022/09/13 14:39:57;;;;;;;;;8.67;8.67;;;;;28.68;43.41;100312.53;5055439;28;45537;-80
2022/09/13 14:42:22;;;;;;;;;6.00;6.00;;;;;28.69;43.59;100302.47;5066218;28;45438;-76
2022/09/13 14:44:48;;;;;;;;;7.33;7.33;;;;;28.71;42.92;100308.53;5070911;28;46113;-77
2022/09/13 14:47:41;;;;;;;;;7.00;7.00;;;;;28.71;43.55;100308.53;5055203;28;45388;-76
2022/09/13 14:50:16;;;;;;;;;8.00;8.00;;;;;28.71;43.21;100311.25;5075260;27;45721;-77
2022/09/13 14:52:49;;;;;;;;;8.00;8.00;;;;;28.72;43.71;100310.22;5104851;27;45712;-79
2022/09/13 14:55:20;;;;;;;;;7.00;7.00;;;;;28.72;43.35;100307.50;5115261;27;46156;-78
2022/09/13 14:57:52;;;;;;;;;6.33;6.33;;;;;28.70;43.45;100302.25;5131997;27;45649;-77
2022/09/13 15:00:20;;;;;;;;;7.00;5.00;;;;;28.71;43.12;100303.06;5109352;27;45430;-77
2022/09/13 15:02:48;;;;;;;;;7.00;7.00;;;;;28.73;43.64;100309.16;5114684;27;45628;-78
2022/09/13 15:05:16;;;;;;;;;6.33;6.33;;;;;28.73;43.64;100314.63;5111489;27;45639;-78
2022/09/13 15:07:42;;;;;;;;;6.33;6.33;;;;;28.72;43.21;100312.97;5114311;27;45358;-82
2022/09/13 15:10:20;;;;;;;;;7.00;7.00;;;;;28.75;43.30;100328.91;5112427;27;45422;-84
2022/09/13 15:13:06;;;;;;;;;8.00;8.00;;;;;28.77;42.88;100316.72;5108553;27;45820;-81
2022/09/13 15:15:31;;;;;;;;;9.00;8.67;;;;;28.77;43.81;100303.06;5111280;27;46164;-75
2022/09/13 15:18:04;;;;;;;;;6.33;6.33;;;;;28.80;43.87;100294.44;5105088;27;45422;-80
2022/09/13 15:20:54;;;;;;;;;6.67;6.67;;;;;28.77;43.96;100311.25;5127668;27;45670;-79
2022/09/13 15:23:25;;;;;;;;;8.00;6.67;;;;;28.72;44.05;100305.59;5099516;27;45594;-82
2022/09/13 15:25:59;;;;;;;;;6.33;6.00;;;;;28.71;44.26;100303.06;5112487;27;46141;-80
2022/09/13 15:28:27;;;;;;;;;6.33;6.33;;;;;28.69;44.05;100300.53;5110715;27;45379;-79
2022/09/13 15:30:55;;;;;;;;;5.67;5.67;;;;;28.71;43.90;100298.47;5113318;27;45356;-80
2022/09/13 15:33:27;;;;;;;;;7.67;6.67;;;;;28.74;44.36;100295.31;5108522;27;45521;-78
2022/09/13 15:36:12;;;;;;;;;7.67;7.67;;;;;28.76;44.29;100298.66;5107427;27;46260;-75
2022/09/13 15:38:56;;;;;;;;;6.00;6.00;;;;;28.78;44.47;100293.78;5112252;27;45399;-76
2022/09/13 15:41:23;;;;;;;;;7.00;7.00;;;;;28.81;43.88;100284.34;5123014;27;45490;-76
2022/09/13 15:43:49;;;;;;;;;5.67;5.67;;;;;28.83;44.26;100281.41;5112781;27;45509;-76
2022/09/13 15:46:16;;;;;;;;;6.67;6.67;;;;;28.85;44.22;100285.59;5109321;27;45759;-77
2022/09/13 15:48:53;;;;;;;;;7.33;7.00;;;;;28.88;44.44;100287.03;5109027;27;45774;-77
2022/09/13 15:51:18;;;;;;;;;7.67;6.00;;;;;28.93;43.94;100281.81;5104545;27;45571;-79
2022/09/13 15:53:45;;;;;;;;;6.00;6.00;;;;;28.98;43.84;100282.00;5112667;27;45564;-79
2022/09/13 15:56:17;;;;;;;;;7.33;7.33;;;;;29.04;43.68;100289.34;5110635;27;46154;-78
2022/09/13 15:58:42;;;;;;;;;6.67;6.67;;;;;29.11;43.40;100285.72;5112255;27;45579;-80
2022/09/13 16:01:15;;;;;;;;;8.33;6.67;;;;;29.16;43.33;100291.38;5111764;27;45606;-80
2022/09/13 16:03:41;;;;;;;;;11.00;9.33;;;;;29.22;43.16;100287.75;5112906;27;45964;-80
2022/09/13 16:06:08;;;;;;;;;8.33;8.33;;;;;29.23;42.87;100289.47;5112330;27;48373;-80
2022/09/13 16:08:37;;;;;;;;;9.00;7.00;;;;;29.27;42.77;100296.16;5100159;27;45401;-80
2022/09/13 16:11:03;;;;;;;;;6.00;6.00;;;;;29.28;43.24;100292.38;5111247;27;45444;-80
2022/09/13 16:13:28;;;;;;;;;7.00;7.00;;;;;29.28;42.66;100286.91;5114541;27;45574;-90
2022/09/13 16:15:56;;;;;;;;;6.33;6.33;;;;;29.27;43.13;100292.59;5107774;27;50745;-81
2022/09/13 16:18:21;;;;;;;;;7.33;6.67;;;;;29.20;43.79;100287.16;5102444;27;47098;-81
2022/09/13 16:20:46;;;;;;;;;10.67;9.67;;;;;29.15;43.74;100281.50;5106792;27;45886;-81
2022/09/13 16:23:12;;;;;;;;;8.67;7.00;;;;;29.03;43.94;100276.75;5102816;27;45489;-82
2022/09/13 16:25:37;;;;;;;;;9.67;7.33;;;;;28.92;44.25;100271.94;5101508;27;54584;-81
2022/09/13 16:28:03;;;;;;;;;7.33;7.33;;;;;28.81;43.90;100265.22;5100069;27;45431;-81
2022/09/13 16:30:30;;;;;;;;;7.00;7.00;;;;;28.72;44.41;100272.00;5106446;27;45628;-81
2022/09/13 16:32:56;;;;;;;;;6.33;6.33;;;;;28.64;44.88;100265.72;5100957;27;45466;-80
2022/09/13 16:35:29;;;;;;;;;7.33;7.33;;;;;28.59;44.88;100264.66;5106247;27;45894;-79
2022/09/13 16:37:55;;;;;;;;;8.00;8.00;;;;;28.51;44.29;100265.75;5101692;27;45408;-80
2022/09/13 16:40:21;;;;;;;;;8.33;8.33;;;;;28.47;44.97;100259.88;5099654;27;45440;-80
2022/09/13 16:42:46;;;;;;;;;8.00;6.33;;;;;28.42;44.76;100259.69;5106614;27;45433;-79
2022/09/13 16:45:12;;;;;;;;;7.33;7.33;;;;;28.38;44.56;100267.47;5099304;27;45877;-81
2022/09/13 16:47:38;;;;;;;;;8.00;8.00;;;;;28.34;44.93;100266.22;5103593;27;45518;-77
2022/09/13 16:50:05;;;;;;;;;7.67;7.00;;;;;28.33;45.32;100271.88;5111796;27;45501;-81
2022/09/13 16:52:31;;;;;;;;;8.67;8.00;;;;;28.31;45.27;100265.81;5102976;27;46314;-79
2022/09/13 16:54:57;;;;;;;;;7.33;7.33;;;;;28.30;45.10;100259.50;5108917;27;47166;-79
2022/09/13 16:57:23;;;;;;;;;8.67;7.33;;;;;28.35;44.94;100256.97;5102808;27;45432;-78
2022/09/13 16:59:51;;;;;;;;;8.67;8.67;;;;;28.37;45.13;100249.41;5119706;27;46740;-77
2022/09/13 17:02:17;;;;;;;;;8.00;8.00;;;;;28.38;45.45;100239.31;5104082;27;45457;-77
2022/09/13 17:04:42;;;;;;;;;9.67;7.33;;;;;28.36;44.88;100242.25;5105831;27;46126;-77
2022/09/13 17:07:07;;;;;;;;;8.00;8.00;;;;;28.33;45.56;100248.16;5106882;27;47012;-78
2022/09/13 17:09:33;;;;;;;;;8.67;7.33;;;;;28.34;44.73;100249.00;5103716;27;46589;-79
2022/09/13 17:11:59;;;;;;;;;7.00;7.00;;;;;28.40;44.87;100253.59;5104008;27;45611;-80
2022/09/13 17:14:25;;;;;;;;;8.00;7.00;;;;;28.47;44.95;100248.97;5106291;27;46206;-79
2022/09/13 17:16:53;;;;;;;;;8.00;6.33;;;;;28.54;44.71;100247.03;5110606;27;45480;-79
2022/09/13 17:19:25;;;;;;;;;7.00;7.00;;;;;28.62;44.39;100242.41;5104224;27;45549;-78